createdAt,value
2023-05-16T00:04:27.305Z,29
2023-05-16T00:33:14.602Z,34
2023-05-16T01:02:10.676Z,34
2023-05-16T01:30:57.653Z,34
2023-05-16T01:59:51.946Z,37
2023-05-16T02:28:48.616Z,37
2023-05-16T02:57:42.638Z,37
2023-05-16T03:26:19.959Z,41
2023-05-16T03:55:26.210Z,41
2023-05-16T04:23:59.387Z,48
2023-05-16T04:52:59.361Z,50
2023-05-16T05:22:02.148Z,50
2023-05-16T05:51:05.282Z,48
2023-05-16T06:19:54.032Z,42
2023-05-16T06:48:44.255Z,41
2023-05-16T07:17:33.827Z,36
2023-05-16T07:46:28.148Z,38
2023-05-16T08:15:21.633Z,41
2023-05-16T08:44:09.178Z,42
2023-05-16T09:13:05.289Z,30
2023-05-16T09:42:00.789Z,28
2023-05-16T10:10:48.639Z,30
2023-05-16T10:39:44.208Z,13
2023-05-16T11:08:38.747Z,7
2023-05-16T11:37:33.475Z,7
2023-05-16T12:06:27.164Z,7
2023-05-16T12:35:17.171Z,5
2023-05-16T13:04:17.751Z,5
2023-05-16T13:32:56.733Z,4
2023-05-16T14:01:36.625Z,4
2023-05-16T14:30:26.169Z,7
2023-05-16T14:58:59.961Z,7
2023-05-16T15:27:54.217Z,7
2023-05-16T15:56:44.209Z,7
2023-05-16T16:25:24.977Z,7
2023-05-16T16:54:16.615Z,5
2023-05-16T17:23:14.443Z,5
2023-05-16T17:52:03.357Z,7
2023-05-16T18:20:48.861Z,7
2023-05-16T18:49:36.443Z,7
2023-05-16T19:18:29.448Z,7
2023-05-16T19:47:11.769Z,10
2023-05-16T20:16:02.740Z,11
2023-05-16T20:44:50.916Z,10
2023-05-16T21:13:32.443Z,13
2023-05-16T21:42:21.913Z,7
2023-05-16T22:11:11.294Z,5
2023-05-16T22:39:56.986Z,7
2023-05-16T23:08:47.216Z,6
2023-05-16T23:37:31.487Z,5
